Time;durP1;ratioP1;P1;durP2;ratioP2;P2;SDS_P1;SDS_P2;PMS_P1;PMS_P2;Temp;Humidity;BMP_temperature;BMP_pressure;BME280_temperature;BME280_humidity;BME280_pressure;Samples;Min_cycle;Max_cycle;Signal;HPM_P1;HPM_P2
2023/08/13 00:01:08;;;;;;;10.68;4.05;;;;;;;24.26;100.00;100700.91;20890813;28;20045;-71
2023/08/13 00:11:31;;;;;;;14.25;3.83;;;;;;;24.25;100.00;100699.16;20872763;28;20531;-71
2023/08/13 00:21:55;;;;;;;10.82;4.15;;;;;;;24.25;100.00;100693.75;20893469;28;20487;-71
2023/08/13 00:32:18;;;;;;;13.15;4.18;;;;;;;24.24;100.00;100689.31;20895204;28;20080;-70
2023/08/13 00:42:43;;;;;;;11.38;4.43;;;;;;;24.27;100.00;100688.31;20878647;28;20623;-71
2023/08/13 00:53:07;;;;;;;17.75;4.68;;;;;;;24.17;100.00;100682.38;20889738;28;20053;-71
2023/08/13 01:03:31;;;;;;;14.75;4.55;;;;;;;24.13;100.00;100672.66;20877778;28;20186;-70
2023/08/13 01:14:03;;;;;;;11.35;5.07;;;;;;;24.08;100.00;100661.19;20874573;28;20502;-71
2023/08/13 01:24:27;;;;;;;15.20;4.82;;;;;;;24.09;100.00;100671.03;20887887;28;20094;-71
2023/08/13 01:34:52;;;;;;;11.77;4.28;;;;;;;24.02;100.00;100672.25;20881041;28;20065;-71
2023/08/13 01:45:16;;;;;;;10.52;3.67;;;;;;;24.01;100.00;100673.19;20881002;28;20516;-71
2023/08/13 01:55:39;;;;;;;10.75;4.20;;;;;;;23.94;100.00;100677.94;20895212;28;20051;-71
2023/08/13 02:05:44;;;;;;;8.85;3.78;;;;;;;23.91;100.00;100675.34;20888139;28;20048;-71
2023/08/13 02:16:07;;;;;;;8.30;3.97;;;;;;;23.80;100.00;100683.00;20894913;28;20409;-71
2023/08/13 02:26:31;;;;;;;9.40;4.28;;;;;;;23.59;100.00;100687.44;20913660;28;20033;-71
2023/08/13 02:36:53;;;;;;;10.88;4.85;;;;;;;23.61;100.00;100696.34;20909619;28;20140;-71
2023/08/13 02:47:18;;;;;;;13.63;4.50;;;;;;;23.59;100.00;100694.63;20924739;28;20482;-71
2023/08/13 02:57:41;;;;;;;10.27;3.95;;;;;;;23.50;100.00;100700.41;20871044;28;20044;-70
2023/08/13 03:08:05;;;;;;;12.30;4.53;;;;;;;23.53;100.00;100693.06;20911787;28;20045;-71
2023/08/13 03:18:28;;;;;;;9.30;4.47;;;;;;;23.35;100.00;100694.63;20868439;28;20127;-71
2023/08/13 03:28:33;;;;;;;9.77;4.18;;;;;;;23.24;100.00;100699.50;20886902;28;20045;-71
2023/08/13 03:39:02;;;;;;;12.63;4.88;;;;;;;23.28;100.00;100708.38;20926472;28;20521;-71
2023/08/13 03:49:27;;;;;;;8.60;4.18;;;;;;;23.35;100.00;100708.09;20889228;28;20541;-70
2023/08/13 03:59:49;;;;;;;11.15;4.13;;;;;;;23.52;100.00;100707.47;20883087;28;20516;-71
2023/08/13 04:10:14;;;;;;;9.68;3.97;;;;;;;23.88;100.00;100705.16;20899477;28;20588;-71
2023/08/13 04:20:39;;;;;;;10.25;3.45;;;;;;;24.33;100.00;100712.34;20912502;28;20048;-71
2023/08/13 04:31:05;;;;;;;11.60;3.42;;;;;;;24.90;100.00;100717.06;20873972;28;20053;-71
2023/08/13 04:41:31;;;;;;;7.40;2.63;;;;;;;25.31;100.00;100729.63;20862643;28;20056;-71
2023/08/13 04:51:56;;;;;;;7.13;3.00;;;;;;;25.97;100.00;100740.94;20866286;28;20148;-71
2023/08/13 05:02:18;;;;;;;8.43;2.60;;;;;;;26.67;100.00;100736.56;20903014;28;20378;-71
2023/08/13 05:12:43;;;;;;;7.93;2.83;;;;;;;27.44;100.00;100723.47;20906514;28;20056;-71
2023/08/13 05:23:06;;;;;;;8.93;3.25;;;;;;;28.20;100.00;100728.22;20895294;28;20044;-71
2023/08/13 05:33:32;;;;;;;8.07;2.72;;;;;;;29.08;100.00;100744.66;20878382;28;20055;-70
2023/08/13 05:43:56;;;;;;;9.13;2.30;;;;;;;29.82;100.00;100749.09;20878124;28;20144;-72
2023/08/13 05:54:20;;;;;;;10.38;2.72;;;;;;;29.54;100.00;100760.88;20916856;28;20554;-71
2023/08/13 06:04:43;;;;;;;9.40;3.00;;;;;;;29.24;100.00;100764.53;20864550;28;20130;-71
2023/08/13 06:15:09;;;;;;;9.10;2.50;;;;;;;29.19;100.00;100761.22;20864794;28;20409;-71
2023/08/13 06:25:32;;;;;;;9.67;2.70;;;;;;;30.06;97.31;100764.75;20877960;28;20048;-71
2023/08/13 06:35:57;;;;;;;10.05;3.13;;;;;;;28.82;100.00;100780.72;20866264;28;20057;-70
2023/08/13 06:46:19;;;;;;;11.65;3.00;;;;;;;29.95;100.00;100782.75;20875296;28;20084;-71
2023/08/13 06:56:24;;;;;;;9.02;3.03;;;;;;;30.81;97.46;100779.72;20874458;28;20063;-70
2023/08/13 07:06:47;;;;;;;9.23;2.90;;;;;;;31.33;85.87;100781.59;20869092;28;20053;-70
2023/08/13 07:17:12;;;;;;;8.00;3.00;;;;;;;31.53;79.14;100778.31;20882665;28;20056;-70
2023/08/13 07:27:34;;;;;;;7.67;3.00;;;;;;;32.06;79.80;100798.19;20889836;28;20111;-70
2023/08/13 07:37:59;;;;;;;11.05;3.55;;;;;;;31.42;83.34;100796.44;20923033;28;20060;-70
2023/08/13 07:48:22;;;;;;;10.47;3.60;;;;;;;32.45;79.87;100795.25;20883430;28;20111;-70
2023/08/13 07:58:46;;;;;;;8.20;2.70;;;;;;;33.16;69.61;100796.22;20881651;28;20587;-70
2023/08/13 08:09:09;;;;;;;10.23;3.22;;;;;;;33.65;67.38;100814.28;20898501;28;20045;-70
2023/08/13 08:19:34;;;;;;;8.57;2.78;;;;;;;33.80;65.06;100808.50;20895181;28;20072;-70
2023/08/13 08:29:56;;;;;;;8.15;2.58;;;;;;;33.59;60.56;100810.16;20876654;28;20045;-70
2023/08/13 08:40:22;;;;;;;7.45;2.83;;;;;;;33.65;60.79;100819.75;20914614;28;20041;-71
2023/08/13 08:50:45;;;;;;;7.45;2.55;;;;;;;33.76;58.26;100806.97;20902549;28;20103;-70
2023/08/13 09:01:09;;;;;;;9.57;3.17;;;;;;;34.18;59.26;100804.47;20882845;28;20045;-71
2023/08/13 09:11:31;;;;;;;9.00;2.70;;;;;;;34.37;58.61;100800.13;20876378;28;20056;-70
2023/08/13 09:21:57;;;;;;;10.32;2.95;;;;;;;34.39;57.39;100800.00;20872462;28;20064;-70
2023/08/13 09:32:19;;;;;;;9.18;3.20;;;;;;;34.79;56.48;100806.63;20876518;28;20103;-70
2023/08/13 09:42:44;;;;;;;8.50;2.88;;;;;;;34.47;54.61;100808.44;20870095;28;20053;-70
2023/08/13 09:53:09;;;;;;;;;;;;;;;34.79;53.79;100792.91;20884580;28;20053;-70
2023/08/13 10:03:35;;;;;;;11.00;2.80;;;;;;;34.28;53.98;100794.50;20905981;28;19927;-71
2023/08/13 10:13:58;;;;;;;9.75;3.15;;;;;;;34.93;51.67;100799.09;20905924;28;20044;-71
2023/08/13 10:24:22;;;;;;;11.07;3.30;;;;;;;34.98;51.91;100788.59;20851269;28;20440;-71
2023/08/13 10:34:47;;;;;;;10.10;3.37;;;;;;;34.97;52.61;100789.59;20908572;28;20534;-71
2023/08/13 10:45:14;;;;;;;8.40;2.75;;;;;;;34.56;54.56;100793.97;20893652;28;20440;-70
2023/08/13 10:55:39;;;;;;;10.13;3.58;;;;;;;34.45;54.95;100772.06;20883861;28;20455;-71
2023/08/13 11:06:03;;;;;;;12.13;3.13;;;;;;;34.49;52.10;100773.53;20898100;28;20053;-70
2023/08/13 11:16:29;;;;;;;11.98;3.33;;;;;;;34.54;51.46;100781.38;20875015;28;20128;-70
2023/08/13 11:26:53;;;;;;;9.53;2.80;;;;;;;34.69;48.50;100772.72;20898258;28;20111;-70
2023/08/13 11:37:16;;;;;;;8.52;2.88;;;;;;;34.48;49.27;100766.31;20885707;28;20052;-70
2023/08/13 11:47:40;;;;;;;10.30;3.13;;;;;;;34.55;50.20;100762.03;20885808;28;20505;-70
2023/08/13 11:58:04;;;;;;;10.43;3.05;;;;;;;34.28;51.54;100757.00;20883739;28;20049;-70
2023/08/13 12:08:29;;;;;;;11.70;3.40;;;;;;;34.30;52.02;100755.00;20894680;28;20126;-71
2023/08/13 12:18:31;;;;;;;9.57;3.42;;;;;;;34.29;51.11;100747.78;20895465;28;20126;-70
2023/08/13 12:28:56;;;;;;;10.20;3.30;;;;;;;34.23;51.53;100734.59;20887891;28;20053;-70
2023/08/13 12:39:18;;;;;;;;;;;;;;;33.98;51.15;100743.97;20923778;28;20090;-70
2023/08/13 12:49:44;;;;;;;11.38;4.07;;;;;;;33.72;51.07;100745.22;20883148;28;19932;-70
2023/08/13 12:59:46;;;;;;;7.87;3.50;;;;;;;33.85;51.66;100745.09;20896716;28;20103;-70
2023/08/13 13:10:10;;;;;;;9.30;3.22;;;;;;;33.58;50.52;100745.44;20908462;28;20099;-70
2023/08/13 13:20:33;;;;;;;10.88;3.35;;;;;;;33.44;50.81;100741.06;20909433;28;20064;-70
2023/08/13 13:30:57;;;;;;;8.27;3.47;;;;;;;33.44;51.84;100742.94;20912584;28;20048;-70
2023/08/13 13:41:19;;;;;;;11.23;3.83;;;;;;;33.43;50.92;100752.13;20915784;28;20057;-70
2023/08/13 13:51:44;;;;;;;8.30;2.95;;;;;;;33.28;50.07;100750.63;20909282;28;20045;-70
2023/08/13 14:02:07;;;;;;;9.98;3.00;;;;;;;33.03;50.83;100752.50;20888142;28;20051;-70
2023/08/13 14:12:31;;;;;;;12.25;3.75;;;;;;;33.09;51.47;100752.03;20872540;28;20053;-70
2023/08/13 14:22:53;;;;;;;9.88;3.55;;;;;;;32.81;53.29;100755.19;20884818;28;20053;-70
2023/08/13 14:33:17;;;;;;;10.13;3.90;;;;;;;32.90;56.23;100753.59;20867014;28;20044;-70
2023/08/13 14:43:42;;;;;;;9.88;4.03;;;;;;;33.15;58.86;100759.75;20877751;28;20037;-70
2023/08/13 14:54:07;;;;;;;10.03;3.67;;;;;;;32.99;63.23;100752.88;20887623;28;20060;-70
2023/08/13 15:04:29;;;;;;;12.32;3.80;;;;;;;32.42;64.62;100765.44;20876977;28;20110;-70
2023/08/13 15:14:53;;;;;;;9.98;4.28;;;;;;;31.55;67.88;100764.56;20898915;28;20053;-70
2023/08/13 15:25:16;;;;;;;16.35;5.72;;;;;;;31.30;73.48;100768.19;20917218;28;20099;-69
2023/08/13 15:35:52;;;;;;;14.23;4.20;;;;;;;30.99;81.39;100765.78;20821755;28;20045;-70
2023/08/13 15:46:15;;;;;;;17.30;5.65;;;;;;;30.56;83.60;100767.88;20820999;28;20053;-70
2023/08/13 15:56:39;;;;;;;11.75;4.70;;;;;;;30.36;87.40;100761.00;20881502;28;20052;-70
2023/08/13 16:07:01;;;;;;;12.95;5.32;;;;;;;30.00;93.10;100781.50;20924745;28;20049;-70
2023/08/13 16:17:25;;;;;;;17.08;4.90;;;;;;;29.82;96.47;100787.22;20927260;28;20106;-70
2023/08/13 16:27:48;;;;;;;14.90;6.18;;;;;;;29.69;98.22;100793.44;20927284;28;20049;-70
2023/08/13 16:38:13;;;;;;;12.77;5.32;;;;;;;29.35;100.00;100804.69;20884185;28;20444;-70
2023/08/13 16:48:35;;;;;;;13.43;5.30;;;;;;;29.29;100.00;100805.03;20926892;28;20681;-70
2023/08/13 16:58:59;;;;;;;15.90;6.93;;;;;;;28.96;100.00;100810.66;20896461;28;20052;-70
2023/08/13 17:09:22;;;;;;;18.55;6.35;;;;;;;28.79;100.00;100808.09;20864590;28;20080;-70
2023/08/13 17:19:46;;;;;;;14.02;6.93;;;;;;;28.62;100.00;100819.06;20891459;28;20049;-71
2023/08/13 17:29:48;;;;;;;14.95;6.05;;;;;;;28.50;100.00;100826.94;20900839;28;20071;-70
2023/08/13 17:40:13;;;;;;;15.00;5.75;;;;;;;28.35;100.00;100835.09;20926767;28;20056;-70
2023/08/13 17:50:35;;;;;;;12.77;5.38;;;;;;;28.17;100.00;100841.53;20927355;28;20130;-70
2023/08/13 18:01:03;;;;;;;17.05;5.57;;;;;;;28.13;100.00;100854.41;20884067;28;20064;-70
2023/08/13 18:11:25;;;;;;;19.85;7.90;;;;;;;28.01;100.00;100863.22;20881227;28;20080;-70
2023/08/13 18:21:51;;;;;;;15.35;5.85;;;;;;;27.90;100.00;100877.38;20924315;28;20059;-70
2023/08/13 18:32:13;;;;;;;12.38;6.53;;;;;;;27.83;100.00;100875.94;20926212;28;20489;-70
2023/08/13 18:42:37;;;;;;;13.25;7.03;;;;;;;27.73;100.00;100888.28;20877466;28;20501;-69
2023/08/13 18:53:00;;;;;;;15.15;7.68;;;;;;;27.59;100.00;100872.72;20925215;28;20045;-70
2023/08/13 19:03:25;;;;;;;19.45;7.32;;;;;;;27.47;100.00;100872.47;20912211;28;20557;-70
2023/08/13 19:13:47;;;;;;;15.65;7.75;;;;;;;27.38;100.00;100873.81;20939001;28;20111;-70
2023/08/13 19:24:11;;;;;;;20.15;9.65;;;;;;;27.24;100.00;100873.69;20926097;28;20048;-70
2023/08/13 19:34:33;;;;;;;20.35;10.13;;;;;;;27.22;100.00;100875.56;20914447;28;20460;-70
2023/08/13 19:44:57;;;;;;;20.98;7.43;;;;;;;27.13;100.00;100870.63;20905431;28;20056;-70
2023/08/13 19:55:20;;;;;;;13.07;6.53;;;;;;;27.01;100.00;100873.97;20888203;28;20045;-70
2023/08/13 20:05:44;;;;;;;19.17;7.88;;;;;;;26.87;100.00;100864.66;20891020;28;20479;-70
2023/08/13 20:16:07;;;;;;;17.23;7.00;;;;;;;26.75;100.00;100875.22;20898707;28;20060;-70
2023/08/13 20:26:12;;;;;;;14.50;7.05;;;;;;;26.53;100.00;100873.56;20898314;28;20094;-70
2023/08/13 20:36:19;;;;;;;16.05;7.35;;;;;;;26.44;100.00;100875.84;20901482;28;20077;-70
2023/08/13 20:46:43;;;;;;;20.65;7.35;;;;;;;26.32;100.00;100871.88;20904666;28;20045;-70
2023/08/13 20:57:06;;;;;;;15.13;6.85;;;;;;;26.29;100.00;100871.16;20881009;28;20049;-70
2023/08/13 21:07:30;;;;;;;13.00;6.93;;;;;;;26.11;100.00;100871.06;20897937;28;20056;-70
2023/08/13 21:17:32;;;;;;;16.05;6.75;;;;;;;26.07;100.00;100858.59;20892105;28;20098;-71
2023/08/13 21:27:56;;;;;;;16.10;7.10;;;;;;;25.96;100.00;100847.41;20887154;28;20071;-70
2023/08/13 21:38:19;;;;;;;13.57;6.82;;;;;;;25.61;100.00;100851.72;20928450;28;20489;-70
2023/08/13 21:48:43;;;;;;;15.15;6.45;;;;;;;25.64;100.00;100853.44;20887140;28;20060;-71
2023/08/13 21:58:45;;;;;;;11.65;6.35;;;;;;;25.56;100.00;100836.63;20899488;28;20041;-71
2023/08/13 22:09:10;;;;;;;13.95;6.55;;;;;;;25.42;100.00;100830.00;20884537;28;20045;-70
2023/08/13 22:19:46;;;;;;;16.13;7.10;;;;;;;25.46;100.00;100819.97;20892385;28;20048;-70
2023/08/13 22:30:12;;;;;;;13.00;6.30;;;;;;;25.28;100.00;100823.44;20894085;28;20110;-70
2023/08/13 22:40:34;;;;;;;10.77;6.85;;;;;;;25.21;100.00;100822.84;20926693;28;20037;-70
2023/08/13 22:50:59;;;;;;;14.55;7.47;;;;;;;25.17;100.00;100810.44;20937531;28;20453;-70
2023/08/13 23:01:22;;;;;;;17.02;7.80;;;;;;;25.00;100.00;100815.69;20926386;28;20041;-71
2023/08/13 23:11:45;;;;;;;13.45;7.63;;;;;;;24.95;100.00;100823.97;20925897;28;20048;-71
2023/08/13 23:22:07;;;;;;;11.40;7.15;;;;;;;24.91;100.00;100816.06;20908495;28;20140;-71
2023/08/13 23:32:15;;;;;;;17.98;7.55;;;;;;;24.73;100.00;100816.84;20903390;28;20505;-70
2023/08/13 23:42:38;;;;;;;16.45;7.88;;;;;;;24.67;100.00;100819.78;20902540;28;20057;-70
2023/08/13 23:53:03;;;;;;;12.82;7.18;;;;;;;24.61;100.00;100810.13;20931106;28;20049;-70
